createdAt,value
2018-03-11T00:00:53.427Z,20.87
2018-03-11T00:03:20.065Z,20.60
2018-03-11T00:05:46.675Z,19.13
2018-03-11T00:08:13.337Z,18.83
2018-03-11T00:10:39.962Z,20.00
2018-03-11T00:13:06.599Z,20.70
2018-03-11T00:15:33.225Z,20.87
2018-03-11T00:17:59.818Z,21.63
2018-03-11T00:20:26.427Z,20.10
2018-03-11T00:22:53.040Z,18.27
2018-03-11T00:25:19.663Z,17.67
2018-03-11T00:27:46.258Z,19.20
2018-03-11T00:30:12.878Z,18.50
2018-03-11T00:32:39.495Z,18.37
2018-03-11T00:35:06.140Z,18.27
2018-03-11T00:37:32.748Z,18.67
2018-03-11T00:39:59.336Z,19.30
2018-03-11T00:42:25.950Z,19.23
2018-03-11T00:44:52.562Z,19.90
2018-03-11T00:47:19.393Z,19.27
2018-03-11T00:49:45.991Z,20.40
2018-03-11T00:52:12.615Z,20.27
2018-03-11T00:54:39.301Z,21.20
2018-03-11T00:57:05.952Z,19.97
2018-03-11T00:59:32.531Z,20.33
2018-03-11T01:01:59.151Z,22.30
2018-03-11T01:04:26.061Z,21.73
2018-03-11T01:06:52.664Z,21.10
2018-03-11T01:09:19.260Z,21.07
2018-03-11T01:11:45.875Z,19.47
2018-03-11T01:14:12.506Z,20.57
2018-03-11T01:16:39.138Z,19.53
2018-03-11T01:19:05.753Z,20.77
2018-03-11T01:21:32.674Z,20.40
2018-03-11T01:23:59.277Z,18.80
2018-03-11T01:26:25.879Z,19.27
2018-03-11T01:28:52.496Z,18.10
2018-03-11T01:31:19.112Z,18.20
2018-03-11T01:33:45.728Z,19.30
2018-03-11T01:36:12.339Z,19.30
2018-03-11T01:38:38.952Z,19.30
2018-03-11T01:41:05.563Z,20.03
2018-03-11T01:43:32.225Z,21.03
2018-03-11T01:45:58.819Z,83.50
2018-03-11T01:48:25.433Z,19.30
2018-03-11T01:50:52.025Z,24.33
2018-03-11T01:53:18.639Z,21.10
2018-03-11T01:55:45.257Z,21.40
2018-03-11T01:58:11.848Z,20.80
2018-03-11T02:00:38.475Z,20.10
2018-03-11T02:03:05.064Z,19.80
2018-03-11T02:05:31.910Z,22.17
2018-03-11T02:07:58.512Z,21.80
2018-03-11T02:10:25.145Z,23.80
2018-03-11T02:12:51.740Z,23.07
2018-03-11T02:15:18.356Z,22.90
2018-03-11T02:17:44.944Z,23.40
2018-03-11T02:20:11.570Z,21.17
2018-03-11T02:22:38.172Z,22.00
2018-03-11T02:25:04.793Z,21.13
2018-03-11T02:27:31.408Z,22.23
2018-03-11T02:29:57.990Z,21.07
2018-03-11T02:32:24.756Z,19.97
2018-03-11T02:34:51.327Z,20.30
2018-03-11T02:37:17.952Z,19.20
2018-03-11T02:39:44.561Z,19.30
2018-03-11T02:42:11.134Z,18.57
2018-03-11T02:44:37.757Z,18.47
2018-03-11T04:03:00.699Z,20.47
2018-03-11T04:05:27.332Z,20.10
2018-03-11T04:07:53.931Z,20.87
2018-03-11T04:10:20.571Z,21.63
2018-03-11T04:12:47.157Z,20.53
2018-03-11T04:15:13.828Z,19.80
2018-03-11T04:17:40.433Z,20.80
2018-03-11T04:20:07.079Z,18.57
2018-03-11T04:22:33.684Z,19.83
2018-03-11T04:25:00.427Z,20.20
2018-03-11T04:27:27.023Z,19.63
2018-03-11T04:29:53.633Z,18.90
2018-03-11T04:32:20.341Z,19.27
2018-03-11T04:34:47.088Z,18.93
2018-03-11T04:37:13.700Z,18.87
2018-03-11T04:39:40.282Z,18.60
2018-03-11T04:42:06.896Z,19.80
2018-03-11T04:44:33.485Z,20.33
2018-03-11T04:47:00.110Z,21.57
2018-03-11T04:49:26.695Z,19.27
2018-03-11T04:51:53.314Z,19.60
2018-03-11T04:54:19.955Z,19.43
2018-03-11T04:56:46.558Z,19.60
2018-03-11T04:59:13.163Z,19.70
2018-03-11T05:01:39.765Z,18.73
2018-03-11T05:04:06.367Z,20.47
2018-03-11T05:06:32.956Z,19.20
2018-03-11T05:08:59.568Z,18.63
2018-03-11T05:11:26.157Z,17.83
2018-03-11T05:13:53.020Z,17.90
2018-03-11T05:16:19.616Z,18.40
2018-03-11T05:18:46.233Z,18.00
2018-03-11T05:21:12.816Z,17.43
2018-03-11T05:23:39.436Z,18.30
2018-03-11T05:26:06.021Z,18.60
2018-03-11T05:28:32.831Z,18.30
2018-03-11T05:30:59.440Z,17.47
2018-03-11T05:33:26.041Z,18.03
2018-03-11T05:35:52.660Z,18.40
2018-03-11T05:38:19.313Z,17.77
2018-03-11T05:40:45.931Z,18.10
2018-03-11T05:43:12.528Z,16.93
2018-03-11T05:45:39.197Z,16.70
2018-03-11T05:48:05.803Z,18.73
2018-03-11T05:50:32.413Z,17.00
2018-03-11T05:52:59.021Z,18.30
2018-03-11T05:55:25.647Z,16.10
2018-03-11T05:57:52.494Z,17.70
2018-03-11T06:00:19.104Z,17.83
2018-03-11T06:02:45.912Z,15.70
2018-03-11T06:05:12.513Z,17.23
2018-03-11T06:07:39.123Z,16.60
2018-03-11T06:10:05.726Z,16.00
2018-03-11T06:12:32.334Z,16.03
2018-03-11T06:14:58.936Z,17.27
2018-03-11T06:17:25.732Z,16.50
2018-03-11T06:19:52.336Z,17.97
2018-03-11T06:22:18.955Z,18.60
2018-03-11T06:24:45.581Z,16.60
2018-03-11T06:27:12.188Z,16.13
2018-03-11T06:29:38.952Z,17.40
2018-03-11T06:32:05.560Z,17.83
2018-03-11T06:34:32.159Z,15.50
2018-03-11T06:36:58.776Z,16.10
2018-03-11T06:39:25.385Z,15.60
2018-03-11T06:41:52.028Z,15.50
2018-03-11T06:44:18.684Z,14.20
2018-03-11T06:46:45.259Z,14.33
2018-03-11T06:49:11.937Z,14.80
2018-03-11T06:51:38.533Z,16.03
2018-03-11T06:54:05.139Z,13.97
2018-03-11T06:56:31.859Z,15.60
2018-03-11T06:58:58.578Z,13.80
2018-03-11T07:01:25.156Z,14.50
2018-03-11T07:03:51.773Z,13.50
2018-03-11T07:06:18.363Z,14.27
2018-03-11T07:08:44.976Z,13.90
2018-03-11T07:11:11.684Z,15.13
2018-03-11T07:13:38.311Z,13.83
2018-03-11T07:16:05.733Z,14.60
2018-03-11T07:18:32.377Z,13.40
2018-03-11T07:20:58.983Z,12.77
2018-03-11T07:23:25.591Z,13.57
2018-03-11T07:25:52.199Z,13.73
2018-03-11T07:28:18.819Z,12.60
2018-03-11T07:30:45.428Z,12.63
2018-03-11T07:33:12.343Z,11.73
2018-03-11T07:35:38.943Z,10.93
2018-03-11T07:38:05.551Z,11.10
2018-03-11T07:40:32.168Z,10.83
2018-03-11T07:42:58.779Z,9.80
2018-03-11T07:45:25.440Z,10.30
2018-03-11T07:47:52.026Z,10.90
2018-03-11T07:50:18.656Z,10.23
2018-03-11T07:52:45.251Z,11.57
2018-03-11T07:55:11.832Z,12.50
2018-03-11T07:57:38.450Z,12.70
2018-03-11T08:00:05.222Z,11.57
2018-03-11T08:02:31.817Z,11.70
2018-03-11T08:04:58.413Z,12.03
2018-03-11T08:07:25.020Z,12.23
2018-03-11T08:09:51.641Z,12.60
2018-03-11T08:12:18.224Z,12.03
2018-03-11T08:14:44.819Z,12.73
2018-03-11T08:17:11.442Z,10.83
2018-03-11T08:19:38.047Z,12.60
2018-03-11T08:22:04.795Z,11.57
2018-03-11T08:24:31.396Z,10.37
2018-03-11T08:26:58.051Z,11.70
2018-03-11T08:29:24.637Z,11.00
2018-03-11T08:31:51.220Z,11.07
2018-03-11T08:34:17.852Z,11.37
2018-03-11T08:36:44.441Z,11.70
2018-03-11T08:39:11.163Z,10.00
2018-03-11T08:41:37.744Z,10.57
2018-03-11T08:44:05.324Z,10.17
2018-03-11T08:46:31.908Z,11.30
2018-03-11T08:48:58.515Z,9.87
2018-03-11T08:51:25.100Z,9.00
2018-03-11T08:53:51.756Z,9.20
2018-03-11T08:56:18.299Z,9.00
2018-03-11T08:58:44.909Z,8.23
2018-03-11T09:01:11.483Z,7.80
2018-03-11T09:03:38.100Z,8.60
2018-03-11T09:06:04.740Z,8.20
2018-03-11T09:08:31.340Z,8.37
2018-03-11T09:10:57.944Z,8.87
2018-03-11T09:13:24.544Z,7.80
2018-03-11T09:15:51.172Z,8.60
2018-03-11T09:18:17.798Z,8.97
2018-03-11T09:20:44.391Z,8.93
2018-03-11T09:23:11.016Z,7.83
2018-03-11T09:25:37.629Z,8.70
2018-03-11T09:28:04.205Z,7.97
2018-03-11T09:30:30.846Z,8.00
2018-03-11T09:32:57.438Z,7.60
2018-03-11T09:35:24.033Z,7.20
2018-03-11T09:37:50.908Z,7.03
2018-03-11T09:40:17.468Z,7.47
2018-03-11T09:42:44.082Z,6.90
2018-03-11T09:45:10.717Z,7.67
2018-03-11T09:47:37.359Z,7.80
2018-03-11T09:50:03.952Z,8.00
2018-03-11T09:52:30.637Z,6.97
2018-03-11T09:54:57.175Z,6.53
2018-03-11T09:57:23.794Z,6.50
2018-03-11T09:59:50.372Z,6.83
2018-03-11T10:02:17.001Z,8.10
2018-03-11T10:04:44.405Z,5.60
2018-03-11T10:07:11.020Z,5.77
2018-03-11T10:09:38.347Z,5.33
2018-03-11T10:12:04.902Z,5.23
2018-03-11T10:14:31.521Z,5.70
2018-03-11T10:16:58.160Z,5.03
2018-03-11T10:19:24.797Z,5.00
2018-03-11T10:21:51.401Z,4.33
2018-03-11T10:24:18.052Z,5.67
2018-03-11T10:26:44.637Z,5.50
2018-03-11T10:29:11.240Z,5.10
2018-03-11T10:31:37.825Z,5.23
2018-03-11T10:34:04.426Z,5.37
2018-03-11T10:36:31.667Z,6.20
2018-03-11T10:38:58.294Z,5.70
2018-03-11T10:41:24.898Z,7.87
2018-03-11T10:43:51.475Z,5.17
2018-03-11T10:46:18.081Z,6.00
2018-03-11T10:48:44.668Z,6.60
2018-03-11T10:51:11.281Z,7.13
2018-03-11T10:53:37.925Z,8.40
2018-03-11T12:18:00.863Z,6.60
2018-03-11T12:20:27.466Z,6.07
2018-03-11T12:22:54.064Z,6.27
2018-03-11T12:25:21.160Z,5.47
2018-03-11T12:27:48.291Z,5.43
2018-03-11T12:30:14.979Z,4.90
2018-03-11T12:32:41.578Z,5.20
2018-03-11T12:35:08.220Z,5.90
2018-03-11T12:37:34.781Z,5.50
2018-03-11T12:40:01.431Z,5.03
2018-03-11T12:42:28.991Z,4.20
2018-03-11T12:44:55.603Z,4.40
2018-03-11T12:47:22.233Z,4.93
2018-03-11T12:49:48.820Z,4.00
2018-03-11T12:52:15.440Z,4.27
2018-03-11T12:54:42.019Z,4.40
2018-03-11T12:57:08.662Z,4.30
2018-03-11T12:59:35.246Z,4.00
2018-03-11T13:02:01.864Z,3.87
2018-03-11T13:04:28.447Z,4.10
2018-03-11T13:06:55.062Z,4.13
2018-03-11T13:09:21.636Z,5.67
2018-03-11T13:11:48.275Z,5.23
2018-03-11T13:14:14.909Z,5.70
2018-03-11T13:16:41.518Z,5.80
2018-03-11T13:19:08.128Z,5.63
2018-03-11T13:21:34.721Z,5.70
2018-03-11T13:24:01.344Z,5.20
2018-03-11T13:26:27.956Z,4.80
2018-03-11T13:28:54.625Z,5.30
2018-03-11T13:31:21.224Z,4.90
2018-03-11T13:33:53.773Z,4.33
2018-03-11T13:36:20.361Z,4.10
2018-03-11T13:38:52.895Z,5.27
2018-03-11T13:41:19.488Z,3.70
2018-03-11T13:43:46.170Z,3.90
2018-03-11T13:46:18.636Z,3.73
2018-03-11T13:48:45.216Z,4.00
2018-03-11T13:51:11.807Z,4.20
2018-03-11T13:53:44.387Z,4.20
2018-03-11T13:56:10.944Z,4.33
2018-03-11T13:58:44.420Z,3.60
2018-03-11T14:01:11.002Z,4.23
2018-03-11T14:03:37.606Z,4.43
2018-03-11T14:06:04.263Z,2.63
2018-03-11T14:08:30.869Z,3.00
2018-03-11T14:10:57.473Z,2.00
2018-03-11T14:13:24.051Z,2.20
2018-03-11T14:15:50.855Z,2.00
2018-03-11T14:18:17.468Z,1.50
2018-03-11T14:20:44.068Z,1.60
2018-03-11T14:23:10.644Z,1.80
2018-03-11T14:25:37.304Z,4.57
2018-03-11T14:28:03.875Z,2.90
2018-03-11T14:30:30.474Z,4.20
2018-03-11T14:32:57.097Z,1.80
2018-03-11T14:35:23.711Z,1.93
2018-03-11T14:37:50.427Z,1.33
2018-03-11T14:40:17.079Z,1.20
2018-03-11T14:42:43.738Z,1.00
2018-03-11T14:45:10.343Z,1.00
2018-03-11T14:47:36.959Z,1.30
2018-03-11T14:50:03.531Z,1.50
2018-03-11T14:52:30.148Z,1.10
2018-03-11T14:54:56.760Z,1.50
2018-03-11T14:57:23.385Z,1.10
2018-03-11T14:59:49.987Z,1.27
2018-03-11T15:02:16.589Z,0.90
2018-03-11T15:04:43.234Z,1.03
2018-03-11T15:07:10.922Z,0.90
2018-03-11T15:09:37.549Z,1.90
2018-03-11T15:12:04.173Z,1.20
2018-03-11T15:14:30.875Z,1.23
2018-03-11T15:16:57.577Z,1.10
2018-03-11T15:19:24.304Z,1.00
2018-03-11T15:21:50.935Z,1.57
2018-03-11T15:24:17.567Z,0.87
2018-03-11T15:26:44.334Z,1.40
2018-03-11T15:29:10.972Z,1.33
2018-03-11T15:31:37.615Z,1.40
2018-03-11T15:34:04.256Z,1.13
2018-03-11T15:36:30.833Z,0.80
2018-03-11T15:38:57.444Z,1.07
2018-03-11T15:41:24.259Z,1.17
2018-03-11T15:43:50.886Z,2.27
2018-03-11T15:46:17.503Z,1.20
2018-03-11T15:48:44.440Z,1.20
2018-03-11T15:51:11.145Z,1.43
2018-03-11T15:53:37.785Z,1.67
2018-03-11T15:56:04.416Z,1.53
2018-03-11T15:58:31.007Z,1.47
2018-03-11T16:00:57.654Z,1.40
2018-03-11T16:03:24.247Z,1.63
2018-03-11T16:05:50.837Z,4.80
2018-03-11T16:08:17.473Z,1.50
2018-03-11T16:10:44.068Z,1.97
2018-03-11T16:13:10.690Z,1.53
2018-03-11T16:15:37.388Z,1.10
2018-03-11T16:18:04.126Z,1.63
2018-03-11T16:20:30.771Z,1.23
2018-03-11T16:22:57.304Z,1.30
2018-03-11T16:25:23.922Z,4.10
2018-03-11T16:27:50.545Z,1.03
2018-03-11T16:30:17.144Z,1.57
2018-03-11T16:32:43.758Z,1.53
2018-03-11T16:35:10.473Z,1.63
2018-03-11T16:37:37.200Z,1.53
2018-03-11T16:40:03.892Z,1.30
2018-03-11T16:42:30.728Z,1.50
2018-03-11T16:44:57.313Z,1.73
2018-03-11T16:47:23.953Z,1.67
2018-03-11T16:49:50.548Z,1.73
2018-03-11T16:52:17.281Z,1.30
2018-03-11T16:54:43.920Z,1.80
2018-03-11T16:57:10.504Z,2.40
2018-03-11T16:59:37.211Z,2.07
2018-03-11T17:02:03.825Z,1.80
2018-03-11T17:04:30.433Z,1.90
2018-03-11T17:06:57.330Z,1.57
2018-03-11T17:09:23.957Z,2.10
2018-03-11T17:11:50.575Z,2.07
2018-03-11T17:14:17.200Z,2.40
2018-03-11T17:16:43.794Z,2.43
2018-03-11T17:19:10.440Z,3.57
2018-03-11T17:21:37.029Z,5.47
2018-03-11T17:24:04.285Z,4.10
2018-03-11T17:26:30.985Z,3.97
2018-03-11T17:28:57.698Z,4.97
2018-03-11T17:31:24.376Z,3.20
2018-03-11T17:33:50.972Z,3.70
2018-03-11T17:36:17.630Z,4.50
2018-03-11T17:38:44.342Z,4.30
2018-03-11T17:41:11.145Z,4.30
2018-03-11T17:43:37.845Z,4.43
2018-03-11T17:46:04.461Z,4.37
2018-03-11T17:48:31.050Z,4.60
2018-03-11T17:50:57.673Z,4.47
2018-03-11T17:53:24.378Z,5.33
2018-03-11T17:55:51.266Z,5.27
2018-03-11T17:58:17.899Z,6.40
2018-03-11T18:00:44.492Z,5.63
2018-03-11T18:03:11.121Z,6.70
2018-03-11T18:05:38.281Z,6.43
2018-03-11T18:08:05.910Z,6.10
2018-03-11T18:10:32.539Z,5.70
2018-03-11T18:12:59.254Z,6.40
2018-03-11T18:15:25.866Z,5.90
2018-03-11T18:17:52.569Z,6.60
2018-03-11T18:20:19.308Z,5.20
2018-03-11T18:22:45.928Z,6.10
2018-03-11T18:25:12.531Z,5.20
2018-03-11T18:27:39.257Z,6.07
2018-03-11T18:30:06.403Z,6.10
2018-03-11T18:32:33.084Z,6.73
2018-03-11T18:34:59.690Z,5.30
2018-03-11T18:37:26.306Z,6.27
2018-03-11T18:39:52.904Z,6.27
2018-03-11T18:42:19.625Z,7.03
2018-03-11T20:06:42.760Z,7.80
2018-03-11T20:09:09.714Z,8.40
2018-03-11T20:11:36.329Z,7.83
2018-03-11T20:14:03.310Z,8.77
2018-03-11T20:16:30.056Z,7.40
2018-03-11T20:18:56.911Z,7.73
2018-03-11T20:21:23.524Z,6.67
2018-03-11T20:23:50.146Z,7.53
2018-03-11T20:26:17.300Z,8.93
2018-03-11T20:28:43.914Z,7.10
2018-03-11T20:31:10.511Z,7.00
2018-03-11T20:33:37.316Z,7.10
2018-03-11T20:36:04.247Z,7.97
2018-03-11T20:38:30.927Z,8.13
2018-03-11T20:40:57.594Z,8.73
2018-03-11T20:43:24.707Z,7.60
2018-03-11T20:45:51.431Z,7.13
2018-03-11T20:48:18.058Z,7.40
2018-03-11T20:50:44.725Z,7.83
2018-03-11T20:53:11.440Z,7.43
2018-03-11T20:55:38.482Z,7.20
2018-03-11T20:58:05.527Z,7.10
2018-03-11T21:00:32.231Z,6.80
2018-03-11T21:02:59.022Z,7.60
2018-03-11T21:05:25.844Z,7.50
2018-03-11T21:07:52.615Z,7.43
2018-03-11T21:10:19.936Z,8.17
2018-03-11T21:12:46.759Z,7.63
2018-03-11T21:15:13.379Z,7.80
2018-03-11T21:17:40.063Z,6.40
2018-03-11T21:20:06.677Z,7.90
2018-03-11T21:22:33.361Z,7.27
2018-03-11T21:25:00.070Z,6.80
2018-03-11T21:27:26.739Z,7.27
2018-03-11T21:29:53.342Z,7.40
2018-03-11T21:32:19.976Z,7.17
2018-03-11T21:34:46.654Z,6.97
2018-03-11T21:37:13.302Z,8.30
2018-03-11T21:39:39.913Z,6.93
2018-03-11T21:42:06.508Z,7.70
2018-03-11T21:44:33.131Z,8.10
2018-03-11T21:46:59.811Z,6.63
2018-03-11T21:49:26.445Z,7.30
2018-03-11T21:51:53.076Z,8.17
2018-03-11T21:54:19.779Z,7.70
2018-03-11T21:56:48.975Z,8.97
2018-03-11T21:59:15.615Z,7.93
2018-03-11T22:01:42.217Z,7.53
2018-03-11T22:04:08.824Z,9.03
2018-03-11T22:06:35.461Z,9.00
2018-03-11T22:09:02.080Z,9.27
2018-03-11T22:11:28.662Z,9.00
2018-03-11T22:13:55.273Z,10.23
2018-03-11T22:16:21.892Z,9.20
2018-03-11T22:18:48.474Z,9.40
2018-03-11T22:21:15.086Z,8.50
2018-03-11T22:23:41.750Z,8.53
2018-03-11T22:26:08.392Z,9.00
2018-03-11T22:28:35.060Z,8.30
2018-03-11T22:31:01.694Z,9.10
2018-03-11T22:33:28.274Z,8.70
2018-03-11T22:35:55.763Z,9.77
2018-03-11T22:38:22.347Z,8.70
2018-03-11T22:40:48.971Z,9.93
2018-03-11T22:43:15.575Z,9.00
2018-03-11T22:45:42.194Z,8.53
2018-03-11T22:48:08.797Z,9.57
2018-03-11T22:50:35.406Z,8.57
2018-03-11T22:53:02.002Z,9.40
2018-03-11T22:55:28.627Z,8.60
2018-03-11T22:57:55.231Z,10.77
2018-03-11T23:00:21.859Z,8.87
2018-03-11T23:02:48.482Z,9.80
2018-03-11T23:05:15.071Z,8.57
2018-03-11T23:07:41.686Z,8.77
2018-03-11T23:10:08.271Z,8.90
2018-03-11T23:12:34.877Z,9.27
2018-03-11T23:15:01.460Z,9.03
2018-03-11T23:17:28.095Z,10.00
2018-03-11T23:19:54.672Z,8.80
2018-03-11T23:22:21.280Z,9.03
2018-03-11T23:24:47.856Z,9.00
2018-03-11T23:27:14.588Z,7.33
2018-03-11T23:29:41.197Z,7.77
2018-03-11T23:32:07.793Z,7.40
2018-03-11T23:34:34.400Z,7.80
2018-03-11T23:37:00.995Z,7.67
2018-03-11T23:39:27.584Z,7.47
2018-03-11T23:41:54.223Z,7.40
2018-03-11T23:44:20.813Z,6.30
2018-03-11T23:46:47.402Z,7.60
2018-03-11T23:49:14.008Z,6.80
2018-03-11T23:51:40.634Z,9.47
2018-03-11T23:54:07.241Z,7.97
2018-03-11T23:56:33.850Z,9.90
2018-03-11T23:59:00.492Z,11.97
